createdAt,value
2023-01-10T00:01:06.470Z,98769.97
2023-01-10T00:03:33.117Z,98760.06
2023-01-10T00:05:59.749Z,98762.22
2023-01-10T00:08:26.488Z,98766.59
2023-01-10T00:10:53.152Z,98770.75
2023-01-10T00:13:19.747Z,98769.06
2023-01-10T00:15:46.612Z,98761.38
2023-01-10T00:18:13.257Z,98757.22
2023-01-10T00:20:39.887Z,98756.59
2023-01-10T00:23:06.556Z,98754.56
2023-01-10T00:25:33.194Z,98753.31
2023-01-10T00:27:59.802Z,98758.97
2023-01-10T00:30:26.513Z,98762.56
2023-01-10T00:32:53.167Z,98759.78
2023-01-10T00:35:19.767Z,98756.56
2023-01-10T00:37:46.554Z,98759.94
2023-01-10T00:40:13.297Z,98757.19
2023-01-10T00:42:39.933Z,98758.91
2023-01-10T00:45:07.127Z,98752.75
2023-01-10T00:47:33.813Z,98764.16
2023-01-10T00:50:00.394Z,98753.69
2023-01-10T00:52:27.120Z,98760.31
2023-01-10T00:54:53.734Z,98751.06
2023-01-10T00:57:20.376Z,98750.19
2023-01-10T00:59:46.945Z,98758.31
2023-01-10T01:02:13.656Z,98756.50
2023-01-10T01:04:40.330Z,98759.59
2023-01-10T01:07:06.943Z,98757.81
2023-01-10T01:09:33.541Z,98757.09
2023-01-10T01:12:00.168Z,98746.41
2023-01-10T01:14:26.841Z,98750.81
2023-01-10T01:16:53.430Z,98749.34
2023-01-10T01:19:20.092Z,98748.53
2023-01-10T01:21:46.681Z,98749.69
2023-01-10T01:24:13.268Z,98749.06
2023-01-10T01:26:39.879Z,98752.78
2023-01-10T01:29:06.551Z,98753.97
2023-01-10T01:31:33.202Z,98755.44
2023-01-10T01:33:59.888Z,98750.59
2023-01-10T01:36:26.500Z,98744.66
2023-01-10T01:38:53.108Z,98742.47
2023-01-10T01:41:19.682Z,98742.03
2023-01-10T01:44:10.456Z,98749.59
2023-01-10T01:46:39.699Z,98755.06
2023-01-10T01:49:14.121Z,98750.88
2023-01-10T01:51:40.821Z,98753.00
2023-01-10T01:54:10.581Z,98764.25
2023-01-10T01:56:42.714Z,98764.16
2023-01-10T01:59:20.919Z,98767.31
2023-01-10T02:01:51.661Z,98770.94
2023-01-10T02:04:30.402Z,98777.53
2023-01-10T02:06:58.659Z,98776.94
2023-01-10T02:09:34.869Z,98780.84
2023-01-10T02:12:02.295Z,98777.34
2023-01-10T02:14:31.351Z,98784.97
2023-01-10T02:16:58.037Z,98785.78
2023-01-10T02:19:59.108Z,98786.03
2023-01-10T02:22:44.385Z,98777.28
2023-01-10T02:25:29.752Z,98775.69
2023-01-10T02:28:22.153Z,98774.25
2023-01-10T02:31:19.116Z,98776.66
2023-01-10T02:33:51.756Z,98772.09
2023-01-10T02:36:42.850Z,98771.53
2023-01-10T02:39:35.805Z,98771.03
2023-01-10T02:42:08.065Z,98772.25
2023-01-10T02:44:45.856Z,98769.75
2023-01-10T02:47:14.057Z,98765.00
2023-01-10T02:49:51.833Z,98759.78
2023-01-10T02:52:26.546Z,98771.38
2023-01-10T02:54:59.548Z,98769.66
2023-01-10T02:57:58.055Z,98762.00
2023-01-10T03:00:54.301Z,98762.91
2023-01-10T03:03:42.499Z,98777.91
2023-01-10T03:06:23.361Z,98777.75
2023-01-10T03:09:06.959Z,98783.91
2023-01-10T03:11:37.691Z,98783.41
2023-01-10T03:14:06.801Z,98790.66
2023-01-10T03:16:36.474Z,98795.69
2023-01-10T03:19:15.856Z,98787.03
2023-01-10T03:21:44.440Z,98792.44
2023-01-10T03:24:19.162Z,98791.97
2023-01-10T03:26:53.538Z,98790.00
2023-01-10T03:29:28.716Z,98796.13
2023-01-10T03:32:00.920Z,98790.81
2023-01-10T03:34:27.807Z,98789.13
2023-01-10T03:37:19.811Z,98791.47
2023-01-10T03:39:54.225Z,98786.97
2023-01-10T03:42:38.421Z,98790.41
2023-01-10T03:45:09.717Z,98796.66
2023-01-10T03:47:46.492Z,98795.72
2023-01-10T03:50:23.090Z,98798.34
2023-01-10T03:52:49.929Z,98792.00
2023-01-10T03:55:22.337Z,98801.31
2023-01-10T03:57:48.945Z,98819.31
2023-01-10T04:00:16.670Z,98820.75
2023-01-10T04:02:43.423Z,98825.88
2023-01-10T04:05:10.739Z,98832.38
2023-01-10T04:07:37.489Z,98820.06
2023-01-10T04:10:05.822Z,98820.16
2023-01-10T04:12:32.421Z,98803.47
2023-01-10T04:14:59.024Z,98797.28
2023-01-10T04:17:27.513Z,98800.84
2023-01-10T04:19:54.112Z,98802.69
2023-01-10T04:22:20.748Z,98808.81
2023-01-10T04:24:47.338Z,98810.97
2023-01-10T04:27:14.081Z,98808.97
2023-01-10T04:29:40.804Z,98801.56
2023-01-10T04:32:07.538Z,98798.91
2023-01-10T04:34:34.134Z,98798.16
2023-01-10T04:37:00.838Z,98798.78
2023-01-10T04:39:27.434Z,98802.09
2023-01-10T04:41:54.022Z,98808.78
2023-01-10T04:44:20.616Z,98820.19
2023-01-10T04:46:47.211Z,98822.56
2023-01-10T04:49:13.798Z,98829.72
2023-01-10T04:51:40.444Z,98833.25
2023-01-10T04:54:07.064Z,98831.38
2023-01-10T04:56:34.147Z,98840.75
2023-01-10T04:59:00.736Z,98843.78
2023-01-10T05:01:27.460Z,98859.63
2023-01-10T05:03:56.127Z,98856.22
2023-01-10T05:06:23.968Z,98855.81
2023-01-10T05:08:50.703Z,98857.78
2023-01-10T05:11:17.404Z,98854.88
2023-01-10T05:13:44.020Z,98858.03
2023-01-10T05:16:10.782Z,98856.78
2023-01-10T05:18:37.401Z,98873.28
2023-01-10T05:21:06.851Z,98882.09
2023-01-10T05:23:33.828Z,98880.88
2023-01-10T05:26:19.595Z,98880.13
2023-01-10T05:28:46.215Z,98877.94
2023-01-10T05:31:16.390Z,98874.94
2023-01-10T05:33:47.823Z,98877.88
2023-01-10T05:36:16.323Z,98871.88
2023-01-10T05:38:42.973Z,98870.06
2023-01-10T05:41:09.609Z,98867.25
2023-01-10T05:43:36.251Z,98869.44
2023-01-10T05:46:02.944Z,98879.25
2023-01-10T05:48:29.661Z,98880.88
2023-01-10T05:50:56.481Z,98892.59
2023-01-10T05:53:23.436Z,98888.75
2023-01-10T05:55:57.520Z,98887.63
2023-01-10T05:58:24.859Z,98892.47
2023-01-10T06:00:51.842Z,98897.69
2023-01-10T06:03:19.175Z,98895.78
2023-01-10T06:05:48.635Z,98912.66
2023-01-10T06:08:15.503Z,98912.41
2023-01-10T06:10:42.575Z,98921.53
2023-01-10T06:13:09.279Z,98927.88
2023-01-10T06:15:37.631Z,98941.06
2023-01-10T06:18:04.967Z,98940.31
2023-01-10T06:20:32.027Z,98947.72
2023-01-10T06:22:58.779Z,98943.00
2023-01-10T06:25:25.379Z,98943.13
2023-01-10T06:27:52.049Z,98950.91
2023-01-10T06:30:18.661Z,98956.50
2023-01-10T06:32:45.296Z,98955.63
2023-01-10T06:35:11.981Z,98956.66
2023-01-10T06:37:38.574Z,98957.84
2023-01-10T06:40:07.281Z,98952.00
2023-01-10T06:42:33.908Z,98954.63
2023-01-10T06:45:00.558Z,98947.59
2023-01-10T06:47:27.327Z,98962.44
2023-01-10T06:49:53.909Z,98961.94
2023-01-10T06:52:20.565Z,98960.97
2023-01-10T06:54:47.143Z,98969.22
2023-01-10T06:57:13.841Z,98964.16
2023-01-10T06:59:40.482Z,98980.88
2023-01-10T07:02:07.296Z,98986.00
2023-01-10T07:04:33.940Z,98998.03
2023-01-10T07:07:00.717Z,98994.66
2023-01-10T07:09:28.160Z,99006.19
2023-01-10T07:11:54.880Z,99015.16
2023-01-10T07:14:21.471Z,99016.81
2023-01-10T07:16:48.244Z,99030.69
2023-01-10T07:19:15.196Z,99029.41
2023-01-10T07:21:41.792Z,99035.75
2023-01-10T07:24:08.926Z,99030.50
2023-01-10T07:26:35.648Z,99037.50
2023-01-10T07:29:02.328Z,99035.94
2023-01-10T07:31:29.032Z,99036.44
2023-01-10T07:33:55.731Z,99053.41
2023-01-10T07:36:22.666Z,99056.00
2023-01-10T07:38:49.263Z,99067.06
2023-01-10T07:41:15.863Z,99075.88
2023-01-10T07:43:42.552Z,99081.19
2023-01-10T07:46:10.936Z,99088.09
2023-01-10T07:48:38.510Z,99090.69
2023-01-10T07:51:05.658Z,99098.47
2023-01-10T07:53:32.246Z,99099.59
2023-01-10T07:56:01.300Z,99103.97
2023-01-10T07:58:28.956Z,99116.88
2023-01-10T08:00:59.786Z,99116.97
2023-01-10T08:03:27.364Z,99122.47
2023-01-10T08:06:01.591Z,99124.94
2023-01-10T08:08:28.439Z,99136.91
2023-01-10T08:10:55.032Z,99135.19
2023-01-10T08:13:21.751Z,99136.84
2023-01-10T08:15:48.433Z,99151.81
2023-01-10T08:18:15.026Z,99153.56
2023-01-10T08:20:41.637Z,99156.97
2023-01-10T08:23:08.252Z,99164.75
2023-01-10T08:25:34.935Z,99167.28
2023-01-10T08:28:01.520Z,99166.81
2023-01-10T08:30:28.168Z,99178.69
2023-01-10T08:32:54.961Z,99168.19
2023-01-10T08:35:21.573Z,99171.53
2023-01-10T08:37:48.359Z,99181.41
2023-01-10T08:40:15.118Z,99185.63
2023-01-10T08:42:41.700Z,99188.31
2023-01-10T08:45:10.124Z,99201.38
2023-01-10T08:47:36.711Z,99201.38
2023-01-10T08:50:03.369Z,99214.56
2023-01-10T08:52:30.966Z,99203.97
2023-01-10T08:54:57.563Z,99216.38
2023-01-10T08:57:24.165Z,99231.19
2023-01-10T08:59:50.743Z,99228.22
2023-01-10T09:02:17.360Z,99238.00
2023-01-10T09:04:43.994Z,99242.47
2023-01-10T09:07:10.573Z,99246.66
2023-01-10T09:09:37.561Z,99257.09
2023-01-10T09:12:04.442Z,99260.69
2023-01-10T09:14:31.023Z,99278.09
2023-01-10T09:16:57.623Z,99276.38
2023-01-10T09:19:24.203Z,99269.44
2023-01-10T09:21:50.770Z,99284.91
2023-01-10T09:24:17.346Z,99288.53
2023-01-10T09:26:43.936Z,99297.34
2023-01-10T09:29:10.505Z,99300.81
2023-01-10T09:31:37.140Z,99307.78
2023-01-10T09:34:03.742Z,99300.94
2023-01-10T09:36:30.398Z,99304.59
2023-01-10T09:38:57.001Z,99319.16
2023-01-10T09:41:38.542Z,99323.72
2023-01-10T09:44:12.807Z,99316.72
2023-01-10T09:46:46.858Z,99334.63
2023-01-10T09:49:36.485Z,99344.44
2023-01-10T09:52:03.514Z,99347.94
2023-01-10T09:54:43.296Z,99352.38
2023-01-10T09:57:21.877Z,99352.44
2023-01-10T09:59:49.944Z,99356.03
2023-01-10T10:02:41.358Z,99355.19
2023-01-10T10:05:18.799Z,99355.31
2023-01-10T10:07:52.787Z,99358.94
2023-01-10T10:10:25.884Z,99352.69
2023-01-10T10:13:31.816Z,99351.75
2023-01-10T10:16:30.257Z,99355.16
2023-01-10T10:18:59.505Z,99343.03
2023-01-10T10:21:58.474Z,99354.56
2023-01-10T10:24:30.841Z,99358.88
2023-01-10T10:27:00.137Z,99368.38
2023-01-10T10:29:44.968Z,99377.13
2023-01-10T10:32:33.097Z,99382.34
2023-01-10T10:35:27.641Z,99396.25
2023-01-10T10:37:59.169Z,99393.63
2023-01-10T10:40:34.280Z,99385.03
2023-01-10T10:43:14.295Z,99399.72
2023-01-10T10:46:08.740Z,99408.53
2023-01-10T10:48:53.820Z,99399.78
2023-01-10T10:51:29.363Z,99416.34
2023-01-10T10:53:57.929Z,99405.84
2023-01-10T10:56:26.625Z,99428.44
2023-01-10T10:58:56.873Z,99421.47
2023-01-10T11:01:26.391Z,99431.81
2023-01-10T11:03:58.628Z,99439.72
2023-01-10T11:06:27.855Z,99447.53
2023-01-10T11:08:57.538Z,99452.78
2023-01-10T11:11:39.568Z,99460.59
2023-01-10T11:14:08.283Z,99468.41
2023-01-10T11:16:43.846Z,99472.69
2023-01-10T11:19:25.077Z,99474.47
2023-01-10T11:21:59.321Z,99466.81
2023-01-10T11:24:28.973Z,99475.47
2023-01-10T11:26:57.152Z,99485.69
2023-01-10T11:29:39.099Z,99475.47
2023-01-10T11:32:12.847Z,99479.69
2023-01-10T11:34:39.792Z,99488.34
2023-01-10T11:37:20.486Z,99483.09
2023-01-10T11:39:47.155Z,99490.88
2023-01-10T11:42:31.709Z,99481.34
2023-01-10T11:45:17.137Z,99488.31
2023-01-10T11:47:47.674Z,99492.63
2023-01-10T11:50:37.849Z,99484.00
2023-01-10T11:53:06.924Z,99500.56
2023-01-10T11:55:37.584Z,99503.84
2023-01-10T11:58:08.069Z,99507.38
2023-01-10T12:00:55.974Z,99498.72
2023-01-10T12:03:32.319Z,99511.88
2023-01-10T12:06:02.424Z,99522.19
2023-01-10T12:08:39.480Z,99516.13
2023-01-10T12:11:13.316Z,99522.16
2023-01-10T12:13:51.044Z,99528.13
2023-01-10T12:16:19.558Z,99528.94
2023-01-10T12:18:46.447Z,99533.47
2023-01-10T12:21:16.408Z,99540.31
2023-01-10T12:23:45.435Z,99544.56
2023-01-10T12:26:13.354Z,99554.19
2023-01-10T12:28:50.861Z,99557.56
2023-01-10T12:31:17.829Z,99565.50
2023-01-10T12:33:51.789Z,99576.72
2023-01-10T12:36:49.523Z,99576.72
2023-01-10T12:39:27.469Z,99588.00
2023-01-10T12:41:53.990Z,99592.31
2023-01-10T12:44:47.715Z,99592.34
2023-01-10T12:47:48.880Z,99593.22
2023-01-10T12:50:26.998Z,99606.22
2023-01-10T12:53:09.492Z,99603.56
2023-01-10T12:55:42.068Z,99602.63
2023-01-10T12:58:34.809Z,99601.72
2023-01-10T13:01:03.528Z,99605.31
2023-01-10T13:03:33.549Z,99608.63
2023-01-10T13:06:01.556Z,99619.13
2023-01-10T13:08:32.691Z,99620.94
2023-01-10T13:11:01.205Z,99622.53
2023-01-10T13:13:33.531Z,99621.72
2023-01-10T13:16:18.538Z,99623.47
2023-01-10T13:19:03.802Z,99639.19
2023-01-10T13:21:33.264Z,99642.63
2023-01-10T13:24:04.292Z,99646.84
2023-01-10T13:26:48.263Z,99662.63
2023-01-10T13:29:26.215Z,99663.41
2023-01-10T13:32:00.907Z,99662.63
2023-01-10T13:34:33.647Z,99672.00
2023-01-10T13:37:04.928Z,99675.53
2023-01-10T13:39:36.340Z,99674.66
2023-01-10T13:42:02.960Z,99682.47
2023-01-10T13:44:29.540Z,99692.88
2023-01-10T13:46:56.356Z,99699.69
2023-01-10T13:49:39.928Z,99707.50
2023-01-10T13:52:32.174Z,99712.66
2023-01-10T13:55:01.350Z,99713.53
2023-01-10T13:57:57.017Z,99715.31
2023-01-10T14:00:34.616Z,99722.34
2023-01-10T14:03:01.264Z,99724.13
2023-01-10T14:05:28.183Z,99731.72
2023-01-10T14:07:54.888Z,99726.53
2023-01-10T14:10:32.120Z,99728.31
2023-01-10T14:13:05.390Z,99728.31
2023-01-10T14:15:42.173Z,99734.44
2023-01-10T14:18:23.023Z,99738.94
2023-01-10T14:21:10.406Z,99741.53
2023-01-10T14:23:49.760Z,99753.53
2023-01-10T14:26:30.927Z,99760.56
2023-01-10T14:29:00.277Z,99767.50
2023-01-10T14:31:27.724Z,99777.03
2023-01-10T14:33:54.900Z,99778.72
2023-01-10T14:36:29.569Z,99781.34
2023-01-10T14:38:59.928Z,99786.63
2023-01-10T14:41:35.532Z,99790.13
2023-01-10T14:44:20.129Z,99791.84
2023-01-10T14:46:57.698Z,99798.84
2023-01-10T14:49:50.388Z,99809.84
2023-01-10T14:52:23.388Z,99809.91
2023-01-10T14:55:06.636Z,99808.31
2023-01-10T14:57:33.356Z,99812.53
2023-01-10T15:00:17.508Z,99813.41
2023-01-10T15:02:48.871Z,99810.88
2023-01-10T15:05:24.881Z,99822.22
2023-01-10T15:07:52.677Z,99820.41
2023-01-10T15:10:28.905Z,99836.09
2023-01-10T15:12:59.041Z,99841.31
2023-01-10T15:15:34.688Z,99839.59
2023-01-10T15:18:07.884Z,99841.38
2023-01-10T15:20:34.774Z,99851.78
2023-01-10T15:23:02.126Z,99854.44
2023-01-10T15:25:37.268Z,99853.59
2023-01-10T15:28:05.386Z,99871.69
2023-01-10T15:30:36.888Z,99868.25
2023-01-10T15:33:08.824Z,99873.47
2023-01-10T15:35:37.106Z,99867.44
2023-01-10T15:38:35.412Z,99871.78
2023-01-10T15:41:05.257Z,99874.38
2023-01-10T15:43:33.812Z,99878.72
2023-01-10T15:46:03.551Z,99890.91
2023-01-10T15:48:41.250Z,99897.00
2023-01-10T15:51:35.744Z,99898.69
2023-01-10T15:54:05.388Z,99902.94
2023-01-10T15:57:01.177Z,99908.16
2023-01-10T15:59:31.518Z,99905.59
2023-01-10T16:02:21.380Z,99913.44
2023-01-10T16:04:56.147Z,99919.47
2023-01-10T16:07:33.361Z,99908.25
2023-01-10T16:10:05.840Z,99915.13
2023-01-10T16:12:38.232Z,99921.28
2023-01-10T16:15:15.358Z,99926.38
2023-01-10T16:17:41.949Z,99930.78
2023-01-10T16:20:13.126Z,99925.63
2023-01-10T16:22:40.051Z,99932.53
2023-01-10T16:25:07.499Z,99931.63
2023-01-10T16:27:34.115Z,99929.94
2023-01-10T16:30:00.763Z,99937.72
2023-01-10T16:32:27.399Z,99943.75
2023-01-10T16:34:54.001Z,99943.81
2023-01-10T16:37:20.599Z,99950.72
2023-01-10T16:39:47.216Z,99943.88
2023-01-10T16:42:13.824Z,99955.13
2023-01-10T16:44:40.404Z,99950.63
2023-01-10T16:47:07.374Z,99959.41
2023-01-10T16:49:34.463Z,99962.81
2023-01-10T16:52:01.078Z,99962.88
2023-01-10T16:54:27.693Z,99970.69
2023-01-10T16:56:54.348Z,99974.19
2023-01-10T16:59:20.991Z,99975.06
2023-01-10T17:01:54.611Z,99980.22
2023-01-10T17:04:27.836Z,99982.84
2023-01-10T17:06:54.469Z,99979.41
2023-01-10T17:09:29.550Z,99975.00
2023-01-10T17:12:00.293Z,99982.72
2023-01-10T17:14:27.275Z,99984.53
2023-01-10T17:16:53.929Z,99994.97
2023-01-10T17:19:20.741Z,99997.59
2023-01-10T17:21:47.328Z,100001.09
2023-01-10T17:24:14.047Z,100000.19
2023-01-10T17:26:40.647Z,100001.94
2023-01-10T17:29:07.244Z,100004.53
2023-01-10T17:31:33.998Z,100009.75
2023-01-10T17:34:00.645Z,100006.22
2023-01-10T17:36:27.245Z,100016.66
2023-01-10T17:38:53.882Z,100020.06
2023-01-10T17:41:20.469Z,100028.00
2023-01-10T17:43:47.101Z,100028.00
2023-01-10T17:46:14.959Z,100029.72
2023-01-10T17:48:41.552Z,100029.72
2023-01-10T17:51:08.135Z,100034.03
2023-01-10T17:53:34.713Z,100031.41
2023-01-10T17:56:01.358Z,100034.84
2023-01-10T17:58:28.472Z,100044.47
2023-01-10T18:00:55.247Z,100037.53
2023-01-10T18:03:21.968Z,100039.22
2023-01-10T18:05:52.816Z,100044.34
2023-01-10T18:08:20.523Z,100047.91
2023-01-10T18:10:47.438Z,100053.19
2023-01-10T18:13:16.318Z,100056.66
2023-01-10T18:15:47.438Z,100060.09
2023-01-10T18:18:14.148Z,100063.59
2023-01-10T18:20:42.379Z,100068.72
2023-01-10T18:23:12.718Z,100075.72
2023-01-10T18:25:39.318Z,100071.41
2023-01-10T18:28:05.923Z,100076.56
2023-01-10T18:30:32.598Z,100073.97
2023-01-10T18:32:59.197Z,100070.50
2023-01-10T18:35:25.790Z,100071.41
2023-01-10T18:37:52.466Z,100074.88
2023-01-10T18:40:19.176Z,100076.63
2023-01-10T18:42:45.793Z,100077.47
2023-01-10T18:45:12.406Z,100081.84
2023-01-10T18:47:38.987Z,100075.72
2023-01-10T18:50:07.321Z,100077.50
2023-01-10T18:52:34.037Z,100074.88
2023-01-10T18:55:02.358Z,100086.13
2023-01-10T18:57:30.880Z,100089.59
2023-01-10T18:59:57.482Z,100082.63
2023-01-10T19:02:24.097Z,100085.28
2023-01-10T19:04:50.697Z,100083.56
2023-01-10T19:07:17.379Z,100081.84
2023-01-10T19:09:44.054Z,100080.94
2023-01-10T19:12:10.635Z,100086.16
2023-01-10T19:14:37.276Z,100087.84
2023-01-10T19:17:03.967Z,100085.22
2023-01-10T19:19:30.658Z,100085.22
2023-01-10T19:21:57.270Z,100086.97
2023-01-10T19:24:26.329Z,100093.06
2023-01-10T19:26:53.636Z,100093.97
2023-01-10T19:29:20.347Z,100099.19
2023-01-10T19:31:46.961Z,100107.00
2023-01-10T19:34:13.836Z,100113.13
2023-01-10T19:36:40.618Z,100100.94
2023-01-10T19:39:09.406Z,100107.00
2023-01-10T19:41:37.044Z,100114.81
2023-01-10T19:44:06.388Z,100122.63
2023-01-10T19:46:33.036Z,100127.81
2023-01-10T19:49:00.954Z,100123.53
2023-01-10T19:51:27.682Z,100132.19
2023-01-10T19:53:54.411Z,100135.66
2023-01-10T19:56:20.986Z,100138.28
2023-01-10T19:58:48.388Z,100136.56
2023-01-10T20:01:17.830Z,100137.41
2023-01-10T20:03:44.525Z,100139.16
2023-01-10T20:06:11.600Z,100129.59
2023-01-10T20:08:38.171Z,100129.59
2023-01-10T20:11:06.278Z,100132.19
2023-01-10T20:13:38.562Z,100132.19
2023-01-10T20:16:06.140Z,100140.00
2023-01-10T20:18:33.035Z,100131.31
2023-01-10T20:21:04.276Z,100146.94
2023-01-10T20:23:31.227Z,100151.28
2023-01-10T20:26:03.670Z,100147.78
2023-01-10T20:28:30.577Z,100143.47
2023-01-10T20:30:57.199Z,100147.84
2023-01-10T20:33:23.857Z,100155.66
2023-01-10T20:36:01.823Z,100144.31
2023-01-10T20:38:29.165Z,100157.41
2023-01-10T20:41:01.185Z,100163.47
2023-01-10T20:43:28.046Z,100160.88
2023-01-10T20:45:54.640Z,100167.81
2023-01-10T20:48:21.719Z,100159.97
2023-01-10T20:50:48.333Z,100166.06
2023-01-10T20:53:15.200Z,100166.06
2023-01-10T20:55:41.787Z,100165.22
2023-01-10T20:58:08.365Z,100164.31
2023-01-10T21:00:35.173Z,100165.19
2023-01-10T21:03:02.010Z,100159.97
2023-01-10T21:05:28.687Z,100166.06
2023-01-10T21:07:55.248Z,100170.41
2023-01-10T21:10:21.848Z,100167.81
2023-01-10T21:12:48.667Z,100169.53
2023-01-10T21:15:15.265Z,100167.78
2023-01-10T21:17:41.858Z,100169.53
2023-01-10T21:20:10.537Z,100172.16
2023-01-10T21:22:37.136Z,100169.53
2023-01-10T21:25:03.981Z,100173.03
2023-01-10T21:27:30.642Z,100172.13
2023-01-10T21:29:58.159Z,100169.53
2023-01-10T21:32:24.982Z,100160.88
2023-01-10T21:34:51.643Z,100171.28
2023-01-10T21:37:18.439Z,100163.44
2023-01-10T21:39:45.027Z,100169.50
2023-01-10T21:42:11.855Z,100166.94
2023-01-10T21:44:38.473Z,100159.16
2023-01-10T21:47:05.187Z,100173.03
2023-01-10T21:49:31.825Z,100174.78
2023-01-10T21:51:58.510Z,100172.16
2023-01-10T21:54:25.292Z,100172.19
2023-01-10T21:56:51.872Z,100166.06
2023-01-10T21:59:18.552Z,100160.88
2023-01-10T22:01:46.475Z,100165.22
2023-01-10T22:04:16.233Z,100161.75
2023-01-10T22:06:43.703Z,100166.06
2023-01-10T22:09:10.333Z,100171.31
2023-01-10T22:11:36.897Z,100183.47
2023-01-10T22:14:03.517Z,100186.91
2023-01-10T22:16:30.478Z,100177.38
2023-01-10T22:18:58.567Z,100173.94
2023-01-10T22:21:25.139Z,100176.50
2023-01-10T22:23:51.822Z,100177.38
2023-01-10T22:26:18.396Z,100174.78
2023-01-10T22:28:45.062Z,100172.16
2023-01-10T22:31:11.786Z,100169.56
2023-01-10T22:33:38.784Z,100166.97
2023-01-10T22:36:18.460Z,100166.97
2023-01-10T22:38:46.653Z,100170.44
2023-01-10T22:41:16.316Z,100173.03
2023-01-10T22:43:43.531Z,100164.38
2023-01-10T22:46:11.180Z,100166.94
2023-01-10T22:48:38.507Z,100153.06
2023-01-10T22:51:05.217Z,100162.63
2023-01-10T22:53:32.147Z,100168.69
2023-01-10T22:56:03.914Z,100156.56
2023-01-10T22:58:30.580Z,100160.00
2023-01-10T23:00:57.519Z,100156.53
2023-01-10T23:03:24.639Z,100169.56
2023-01-10T23:05:55.966Z,100171.25
2023-01-10T23:08:22.811Z,100178.22
2023-01-10T23:10:49.479Z,100179.94
2023-01-10T23:13:16.054Z,100183.41
2023-01-10T23:15:42.667Z,100189.44
2023-01-10T23:18:09.514Z,100190.31
2023-01-10T23:20:36.161Z,100192.00
2023-01-10T23:23:02.812Z,100193.69
2023-01-10T23:25:29.397Z,100196.34
2023-01-10T23:27:56.086Z,100193.69
2023-01-10T23:30:22.739Z,100188.47
2023-01-10T23:32:49.302Z,100198.13
2023-01-10T23:35:16.032Z,100193.75
2023-01-10T23:37:42.720Z,100194.47
2023-01-10T23:40:09.827Z,100197.03
2023-01-10T23:42:36.416Z,100203.16
2023-01-10T23:45:03.096Z,100194.44
2023-01-10T23:47:29.688Z,100183.22
2023-01-10T23:49:57.426Z,100199.69
2023-01-10T23:52:24.016Z,100195.38
2023-01-10T23:54:50.604Z,100189.28
2023-01-10T23:57:17.265Z,100194.44
2023-01-10T23:59:43.836Z,100191.81
